createdAt,value
2019-03-17T17:58:55.618Z,1002.45
2019-03-17T17:59:55.207Z,1002.50
2019-03-17T18:01:50.313Z,1002.67
2019-03-17T18:02:49.591Z,1002.65
2019-03-17T18:04:43.782Z,1002.70
2019-03-17T18:05:43.565Z,1002.70
2019-03-17T18:07:38.388Z,1002.72
2019-03-17T18:08:37.871Z,1002.69
2019-03-17T18:10:31.864Z,1002.65
2019-03-17T18:11:31.346Z,1002.78
2019-03-17T18:13:25.952Z,1002.82
2019-03-17T18:14:25.743Z,1002.87
2019-03-17T18:16:20.275Z,1002.91
2019-03-17T18:17:20.103Z,1002.93
2019-03-17T18:19:13.893Z,1002.86
2019-03-17T18:20:13.462Z,1002.80
2019-03-17T18:22:09.836Z,1002.96
2019-03-17T18:23:17.238Z,1003.12
2019-03-17T18:25:00.600Z,1003.06
2019-03-17T18:26:00.195Z,1003.13
2019-03-17T18:27:53.599Z,1003.21
2019-03-17T18:28:53.547Z,1003.30
2019-03-17T18:30:48.277Z,1003.42
2019-03-17T18:31:47.877Z,1003.50
2019-03-17T18:33:42.854Z,1003.65
2019-03-17T18:34:42.228Z,1003.58
2019-03-17T18:36:36.961Z,1003.76
2019-03-17T18:37:36.606Z,1003.80
2019-03-17T18:39:32.191Z,1004.01
2019-03-17T18:40:31.800Z,1004.00
2019-03-17T18:42:33.010Z,1003.98
2019-03-17T18:43:26.188Z,1004.04
2019-03-17T18:45:21.471Z,1004.07
2019-03-17T18:46:20.595Z,1004.11
2019-03-17T18:48:14.422Z,1004.20
2019-03-17T18:49:13.878Z,1004.18
2019-03-17T18:51:08.778Z,1004.17
2019-03-17T18:52:08.377Z,1004.18
2019-03-17T18:54:05.431Z,1004.30
2019-03-17T18:55:03.121Z,1004.33
2019-03-17T18:56:57.855Z,1004.29
2019-03-17T18:57:57.206Z,1004.30
2019-03-17T18:59:52.720Z,1004.29
2019-03-17T19:00:52.833Z,1004.29
2019-03-17T19:02:48.048Z,1004.23
2019-03-17T19:03:45.396Z,1004.25
2019-03-17T19:05:40.031Z,1004.26
2019-03-17T19:06:40.129Z,1004.25
2019-03-17T19:08:37.429Z,1004.34
2019-03-17T19:09:35.854Z,1004.38
2019-03-17T19:10:34.007Z,1004.43
2019-03-17T19:11:34.016Z,1004.38
2019-03-17T19:12:44.940Z,1004.35
2019-03-17T19:13:37.757Z,1004.40
2019-03-17T19:14:33.797Z,1004.39
2019-03-17T19:15:33.783Z,1004.45
2019-03-17T19:16:33.776Z,1004.38
2019-03-17T19:17:33.751Z,1004.35
2019-03-17T19:18:33.748Z,1004.39
2019-03-17T19:19:33.735Z,1004.38
2019-03-17T19:20:33.727Z,1004.46
2019-03-17T19:21:33.724Z,1004.48
2019-03-17T19:22:33.720Z,1004.52
2019-03-17T19:23:33.694Z,1004.49
2019-03-17T19:24:33.689Z,1004.47
2019-03-17T19:25:33.694Z,1004.46
2019-03-17T19:26:33.667Z,1004.50
2019-03-17T19:27:33.669Z,1004.50
2019-03-17T19:28:33.656Z,1004.54
2019-03-17T19:29:33.649Z,1004.57
2019-03-17T19:30:33.634Z,1004.56
2019-03-17T19:31:33.632Z,1004.54
2019-03-17T19:32:35.404Z,1004.56
2019-03-17T19:33:36.211Z,1004.53
2019-03-17T19:34:33.591Z,1004.58
2019-03-17T19:35:33.621Z,1004.57
2019-03-17T19:36:33.585Z,1004.57
2019-03-17T19:37:33.567Z,1004.57
2019-03-17T19:38:33.593Z,1004.58
2019-03-17T19:39:33.558Z,1004.54
2019-03-17T19:40:33.665Z,1004.52
2019-03-17T19:41:33.533Z,1004.57
2019-03-17T19:42:36.730Z,1004.54
2019-03-17T19:43:33.508Z,1004.54
2019-03-17T19:44:33.536Z,1004.56
2019-03-17T19:45:33.495Z,1004.57
2019-03-17T19:46:33.494Z,1004.61
2019-03-17T19:47:33.483Z,1004.61
2019-03-17T19:48:33.488Z,1004.62
2019-03-17T19:49:34.472Z,1004.67
2019-03-17T19:50:33.456Z,1004.66
2019-03-17T19:51:33.430Z,1004.69
2019-03-17T19:52:33.416Z,1004.67
2019-03-17T19:53:33.436Z,1004.64
2019-03-17T19:54:33.417Z,1004.62
2019-03-17T19:55:33.485Z,1004.67
2019-03-17T19:56:33.386Z,1004.69
2019-03-17T19:57:33.373Z,1004.70
2019-03-17T19:58:33.366Z,1004.65
2019-03-17T19:59:33.365Z,1004.65
2019-03-17T20:00:33.356Z,1004.64
2019-03-17T20:01:33.344Z,1004.66
2019-03-17T20:02:33.330Z,1004.72
2019-03-17T20:03:33.358Z,1004.75
2019-03-17T20:04:35.556Z,1004.77
2019-03-17T20:05:33.332Z,1004.74
2019-03-17T20:06:33.318Z,1004.76
2019-03-17T20:07:33.289Z,1004.71
2019-03-17T20:08:33.317Z,1004.71
2019-03-17T20:09:33.259Z,1004.74
2019-03-17T20:10:33.250Z,1004.74
2019-03-17T20:11:33.275Z,1004.72
2019-03-17T20:12:33.240Z,1004.73
2019-03-17T20:13:33.223Z,1004.80
2019-03-17T20:14:33.212Z,1004.86
2019-03-17T20:15:33.199Z,1004.84
2019-03-17T20:16:33.200Z,1004.86
2019-03-17T20:17:33.208Z,1004.87
2019-03-17T20:18:33.176Z,1004.89
2019-03-17T20:19:33.203Z,1004.86
2019-03-17T20:20:33.166Z,1004.89
2019-03-17T20:21:33.145Z,1004.86
2019-03-17T20:22:33.128Z,1004.90
2019-03-17T20:23:33.117Z,1004.89
2019-03-17T20:24:33.158Z,1004.94
2019-03-17T20:25:33.105Z,1004.91
2019-03-17T20:26:33.094Z,1004.93
2019-03-17T20:27:33.082Z,1004.96
2019-03-17T20:28:33.065Z,1004.98
2019-03-17T20:29:33.069Z,1004.99
2019-03-17T20:30:33.051Z,1005.00
2019-03-17T20:31:33.042Z,1005.00
2019-03-17T20:32:33.042Z,1005.02
2019-03-17T20:33:33.028Z,1005.03
2019-03-17T20:34:35.520Z,1005.07
2019-03-17T20:35:33.009Z,1005.05
2019-03-17T20:36:32.991Z,1005.10
2019-03-17T20:37:32.983Z,1005.10
2019-03-17T20:38:33.353Z,1005.10
2019-03-17T20:39:32.961Z,1005.10
2019-03-17T20:40:32.990Z,1005.12
2019-03-17T20:41:32.946Z,1005.08
2019-03-17T20:42:32.924Z,1005.11
2019-03-17T20:43:35.242Z,1005.13
2019-03-17T20:44:32.910Z,1005.13
2019-03-17T20:45:32.902Z,1005.17
2019-03-17T20:46:32.885Z,1005.16
2019-03-17T20:47:32.884Z,1005.17
2019-03-17T20:48:32.879Z,1005.18
2019-03-17T20:49:32.862Z,1005.17
2019-03-17T20:50:32.852Z,1005.18
2019-03-17T20:51:32.836Z,1005.20
2019-03-17T20:52:32.835Z,1005.19
2019-03-17T20:53:32.821Z,1005.27
2019-03-17T20:54:32.816Z,1005.27
2019-03-17T20:55:32.797Z,1005.27
2019-03-17T20:56:32.779Z,1005.30
2019-03-17T20:57:32.780Z,1005.30
2019-03-17T20:58:32.791Z,1005.30
2019-03-17T20:59:32.756Z,1005.33
2019-03-17T21:00:32.737Z,1005.35
2019-03-17T21:01:32.733Z,1005.33
2019-03-17T21:02:32.724Z,1005.32
2019-03-17T21:03:32.718Z,1005.31
2019-03-17T21:04:32.704Z,1005.34
2019-03-17T21:05:32.688Z,1005.36
2019-03-17T21:06:32.678Z,1005.35
2019-03-17T21:07:32.671Z,1005.36
2019-03-17T21:08:32.683Z,1005.37
2019-03-17T21:09:32.664Z,1005.37
2019-03-17T21:10:32.642Z,1005.34
2019-03-17T21:11:32.629Z,1005.38
2019-03-17T21:12:32.636Z,1005.34
2019-03-17T21:13:32.604Z,1005.30
2019-03-17T21:14:32.588Z,1005.34
2019-03-17T21:15:32.588Z,1005.32
2019-03-17T21:16:32.579Z,1005.37
2019-03-17T21:17:32.572Z,1005.33
2019-03-17T21:18:32.559Z,1005.36
2019-03-17T21:19:32.574Z,1005.33
2019-03-17T21:20:32.532Z,1005.36
2019-03-17T21:21:32.543Z,1005.40
2019-03-17T21:22:32.513Z,1005.41
2019-03-17T21:23:32.502Z,1005.46
2019-03-17T21:24:32.487Z,1005.46
2019-03-17T21:25:32.515Z,1005.45
2019-03-17T21:26:32.484Z,1005.44
2019-03-17T21:27:32.461Z,1005.41
2019-03-17T21:28:32.465Z,1005.42
2019-03-17T21:29:32.443Z,1005.39
2019-03-17T21:30:32.442Z,1005.43
2019-03-17T21:31:32.432Z,1005.44
2019-03-17T21:32:32.402Z,1005.49
2019-03-17T21:33:32.391Z,1005.48
2019-03-17T21:34:32.385Z,1005.51
2019-03-17T21:35:32.401Z,1005.46
2019-03-17T21:36:32.360Z,1005.52
2019-03-17T21:37:32.370Z,1005.55
2019-03-17T21:38:32.343Z,1005.57
2019-03-17T21:39:32.349Z,1005.57
2019-03-17T21:40:32.318Z,1005.60
2019-03-17T21:41:32.307Z,1005.63
2019-03-17T21:42:32.296Z,1005.73
2019-03-17T21:43:32.280Z,1005.71
2019-03-17T21:44:32.271Z,1005.66
2019-03-17T21:45:32.271Z,1005.74
2019-03-17T21:46:32.267Z,1005.75
2019-03-17T21:47:32.243Z,1005.75
2019-03-17T21:48:32.242Z,1005.75
2019-03-17T21:49:32.225Z,1005.75
2019-03-17T21:50:32.217Z,1005.72
2019-03-17T21:51:32.203Z,1005.71
2019-03-17T21:52:32.195Z,1005.74
2019-03-17T21:53:32.182Z,1005.68
2019-03-17T21:54:32.185Z,1005.70
2019-03-17T21:55:32.159Z,1005.70
2019-03-17T21:56:32.153Z,1005.67
2019-03-17T21:57:32.132Z,1005.68
2019-03-17T21:58:32.166Z,1005.69
2019-03-17T21:59:32.142Z,1005.67
2019-03-17T22:00:32.120Z,1005.66
2019-03-17T22:01:32.093Z,1005.68
2019-03-17T22:02:32.078Z,1005.62
2019-03-17T22:03:32.073Z,1005.62
2019-03-17T22:04:32.068Z,1005.61
2019-03-17T22:05:32.094Z,1005.63
2019-03-17T22:06:32.898Z,1005.63
2019-03-17T22:07:32.281Z,1005.60
2019-03-17T22:08:32.114Z,1005.57
2019-03-17T22:09:32.550Z,1005.56
2019-03-17T22:10:32.034Z,1005.56
2019-03-17T22:11:34.071Z,1005.55
2019-03-17T22:12:32.378Z,1005.63
2019-03-17T22:13:34.031Z,1005.64
2019-03-17T22:14:31.975Z,1005.65
2019-03-17T22:15:31.965Z,1005.64
2019-03-17T22:16:31.956Z,1005.64
2019-03-17T22:17:31.940Z,1005.65
2019-03-17T22:18:31.922Z,1005.69
2019-03-17T22:19:31.910Z,1005.60
2019-03-17T22:20:31.898Z,1005.66
2019-03-17T22:21:31.887Z,1005.69
2019-03-17T22:22:31.900Z,1005.69
2019-03-17T22:23:31.872Z,1005.69
2019-03-17T22:24:31.853Z,1005.78
2019-03-17T22:25:31.846Z,1005.77
2019-03-17T22:26:31.845Z,1005.79
2019-03-17T22:27:31.831Z,1005.77
2019-03-17T22:28:31.828Z,1005.77
2019-03-17T22:29:31.808Z,1005.78
2019-03-17T22:30:31.790Z,1005.76
2019-03-17T22:31:31.808Z,1005.75
2019-03-17T22:32:31.811Z,1005.80
2019-03-17T22:33:31.767Z,1005.81
2019-03-17T22:34:31.775Z,1005.78
2019-03-17T22:35:31.739Z,1005.80
2019-03-17T22:36:31.758Z,1005.84
2019-03-17T22:37:31.718Z,1005.84
2019-03-17T22:38:31.706Z,1005.83
2019-03-17T22:39:31.695Z,1005.83
2019-03-17T22:40:31.686Z,1005.88
2019-03-17T22:41:31.707Z,1005.86
2019-03-17T22:42:31.662Z,1005.89
2019-03-17T22:43:31.660Z,1005.93
2019-03-17T22:44:31.646Z,1005.92
2019-03-17T22:45:31.682Z,1005.95
2019-03-17T22:46:31.691Z,1005.95
2019-03-17T22:47:31.608Z,1005.89
2019-03-17T22:48:31.624Z,1005.92
2019-03-17T22:49:31.598Z,1005.93
2019-03-17T22:50:31.609Z,1005.95
2019-03-17T22:51:33.525Z,1005.96
2019-03-17T22:52:31.587Z,1006.03
2019-03-17T22:53:31.546Z,1006.04
2019-03-17T22:54:31.556Z,1006.06
2019-03-17T22:55:31.534Z,1006.09
2019-03-17T22:56:31.521Z,1006.09
2019-03-17T22:57:31.507Z,1006.10
2019-03-17T22:58:31.533Z,1006.17
2019-03-17T22:59:31.485Z,1006.14
2019-03-17T23:00:31.474Z,1006.20
2019-03-17T23:01:31.483Z,1006.18
2019-03-17T23:02:31.484Z,1006.21
2019-03-17T23:03:31.503Z,1006.22
2019-03-17T23:04:31.453Z,1006.20
2019-03-17T23:05:31.428Z,1006.20
2019-03-17T23:06:31.429Z,1006.24
2019-03-17T23:07:31.406Z,1006.26
2019-03-17T23:08:31.420Z,1006.27
2019-03-17T23:09:31.384Z,1006.25
2019-03-17T23:10:31.380Z,1006.28
2019-03-17T23:11:33.698Z,1006.27
2019-03-17T23:12:31.355Z,1006.27
2019-03-17T23:13:31.349Z,1006.24
2019-03-17T23:14:36.772Z,1006.22
2019-03-17T23:15:31.328Z,1006.23
2019-03-17T23:16:31.337Z,1006.22
2019-03-17T23:17:31.305Z,1006.27
2019-03-17T23:18:31.296Z,1006.22
2019-03-17T23:19:31.292Z,1006.21
2019-03-17T23:20:31.288Z,1006.17
2019-03-17T23:21:31.262Z,1006.16
2019-03-17T23:22:31.256Z,1006.17
2019-03-17T23:23:31.286Z,1006.20
2019-03-17T23:24:31.249Z,1006.20
2019-03-17T23:25:31.235Z,1006.21
2019-03-17T23:26:31.223Z,1006.23
2019-03-17T23:27:31.209Z,1006.17
2019-03-17T23:28:31.200Z,1006.17
2019-03-17T23:29:31.206Z,1006.16
2019-03-17T23:30:31.197Z,1006.13
2019-03-17T23:31:31.165Z,1006.17
2019-03-17T23:32:31.151Z,1006.12
2019-03-17T23:33:31.155Z,1006.14
2019-03-17T23:34:31.130Z,1006.14
2019-03-17T23:35:31.120Z,1006.16
2019-03-17T23:36:31.121Z,1006.13
2019-03-17T23:37:31.115Z,1006.12
2019-03-17T23:38:31.091Z,1006.12
2019-03-17T23:39:33.017Z,1006.14
2019-03-17T23:40:31.070Z,1006.11
2019-03-17T23:41:31.094Z,1006.11
2019-03-17T23:42:31.056Z,1006.11
2019-03-17T23:43:31.034Z,1006.11
2019-03-17T23:44:31.054Z,1006.14
2019-03-17T23:45:31.025Z,1006.16
2019-03-17T23:46:31.025Z,1006.16
2019-03-17T23:47:31.005Z,1006.19
2019-03-17T23:48:31.008Z,1006.17
2019-03-17T23:49:30.979Z,1006.12
2019-03-17T23:50:32.501Z,1006.10
2019-03-17T23:51:30.954Z,1006.10
2019-03-17T23:52:30.954Z,1006.12
2019-03-17T23:53:32.515Z,1006.14
2019-03-17T23:54:30.927Z,1006.12
2019-03-17T23:55:30.913Z,1006.12
2019-03-17T23:56:30.902Z,1006.13
2019-03-17T23:57:33.342Z,1006.16
2019-03-17T23:58:30.958Z,1006.20
2019-03-17T23:59:30.885Z,1006.18
